createdAt,value
2022-08-10T00:00:16.280Z,10.430556
2022-08-10T00:05:16.520Z,10.310185
2022-08-10T00:10:16.325Z,10.168981
2022-08-10T00:15:51.852Z,10.071759
2022-08-10T00:20:16.603Z,10.062222
2022-08-10T00:25:16.530Z,10.016204
2022-08-10T00:30:16.559Z,10.002315
2022-08-10T00:35:16.407Z,9.935185
2022-08-10T00:40:16.356Z,9.861111
2022-08-10T00:45:16.207Z,9.886574
2022-08-10T00:50:17.076Z,9.793981
2022-08-10T00:55:16.281Z,9.657407
2022-08-10T01:00:16.230Z,9.583333
2022-08-10T01:05:16.350Z,9.453704
2022-08-10T01:10:16.264Z,9.337963
2022-08-10T01:15:16.359Z,9.270833
2022-08-10T01:20:27.263Z,9.263889
2022-08-10T01:25:16.216Z,9.280000
2022-08-10T01:30:16.588Z,9.229167
2022-08-10T01:35:16.450Z,9.208333
2022-08-10T01:40:16.815Z,9.168981
2022-08-10T01:45:16.336Z,9.055556
2022-08-10T01:50:16.249Z,9.053241
2022-08-10T01:55:16.248Z,9.031111
2022-08-10T02:00:16.285Z,8.914352
2022-08-10T02:05:16.210Z,8.803241
2022-08-10T02:10:16.448Z,8.791667
2022-08-10T02:15:16.265Z,8.745370
2022-08-10T02:20:16.190Z,8.821759
2022-08-10T02:25:41.260Z,8.837963
2022-08-10T02:30:16.331Z,8.875000
2022-08-10T02:35:22.178Z,9.041667
2022-08-10T02:45:13.466Z,9.053241
2022-08-10T02:45:14.107Z,9.053241
2022-08-10T02:45:22.694Z,9.053241
2022-08-10T02:45:29.935Z,9.090278
2022-08-10T02:50:16.364Z,9.041667
2022-08-10T02:55:18.170Z,9.006944
2022-08-10T03:00:16.247Z,8.875000
2022-08-10T03:05:16.266Z,8.828889
2022-08-10T03:10:16.271Z,8.828704
2022-08-10T03:15:16.302Z,8.810185
2022-08-10T03:20:37.831Z,8.787037
2022-08-10T03:25:16.466Z,8.773148
2022-08-10T03:30:29.939Z,8.784722
2022-08-10T03:35:16.269Z,8.796296
2022-08-10T03:40:16.185Z,8.743056
2022-08-10T03:45:16.232Z,8.768889
2022-08-10T03:50:28.846Z,8.956019
2022-08-10T03:56:26.948Z,9.226852
2022-08-10T03:56:28.001Z,9.226852
2022-08-10T04:00:16.266Z,9.451389
2022-08-10T04:05:16.157Z,9.733796
2022-08-10T04:10:16.148Z,9.935185
2022-08-10T04:15:16.247Z,10.090278
2022-08-10T04:20:16.186Z,10.192130
2022-08-10T04:25:16.115Z,10.271111
2022-08-10T04:30:16.351Z,10.351852
2022-08-10T04:35:16.499Z,10.324444
2022-08-10T04:40:25.406Z,10.277778
2022-08-10T04:45:16.276Z,10.331019
2022-08-10T04:50:16.293Z,10.462963
2022-08-10T04:55:16.197Z,10.546296
2022-08-10T05:00:18.890Z,10.631944
2022-08-10T05:05:16.295Z,10.680000
2022-08-10T05:10:16.403Z,10.775463
2022-08-10T05:15:16.758Z,11.064815
2022-08-10T05:20:16.221Z,11.474537
2022-08-10T05:25:16.320Z,12.004630
2022-08-10T05:30:16.851Z,12.314815
2022-08-10T05:35:16.252Z,12.701389
2022-08-10T05:40:16.151Z,13.111111
2022-08-10T05:45:16.225Z,13.250000
2022-08-10T05:50:16.196Z,13.375000
2022-08-10T05:55:17.304Z,13.650463
2022-08-10T06:00:39.747Z,13.879630
2022-08-10T06:05:16.366Z,13.981481
2022-08-10T06:10:28.515Z,14.506944
2022-08-10T06:15:21.454Z,15.206019
2022-08-10T06:20:16.147Z,16.039352
2022-08-10T06:26:08.209Z,16.576389
2022-08-10T06:30:20.950Z,16.918981
2022-08-10T06:35:16.232Z,17.365741
2022-08-10T06:40:16.201Z,17.761574
2022-08-10T06:45:16.449Z,18.250000
2022-08-10T06:50:34.532Z,18.817130
2022-08-10T06:55:16.862Z,19.444444
2022-08-10T07:00:20.386Z,19.800926
2022-08-10T07:05:16.099Z,20.435556
2022-08-10T07:10:16.143Z,20.573333
2022-08-10T07:15:16.298Z,20.819444
2022-08-10T07:20:16.264Z,21.017778
2022-08-10T07:25:16.150Z,21.111111
2022-08-10T07:30:16.217Z,21.273148
2022-08-10T07:35:16.175Z,21.444444
2022-08-10T07:40:16.242Z,21.828704
2022-08-10T07:45:16.254Z,22.155093
2022-08-10T07:50:16.120Z,22.428241
2022-08-10T07:55:16.447Z,22.129630
2022-08-10T08:00:16.091Z,22.099537
2022-08-10T08:05:55.120Z,22.509259
2022-08-10T08:10:16.082Z,22.453704
2022-08-10T08:16:17.880Z,22.590278
2022-08-10T08:16:22.188Z,22.590278
2022-08-10T08:20:16.116Z,22.613426
2022-08-10T08:25:16.114Z,22.729167
2022-08-10T08:30:16.091Z,22.784722
2022-08-10T08:35:16.370Z,23.043981
2022-08-10T08:40:16.162Z,23.560185
2022-08-10T08:45:16.149Z,23.833333
2022-08-10T08:50:16.102Z,24.270833
2022-08-10T08:56:02.968Z,24.215278
2022-08-10T09:00:16.097Z,24.069444
2022-08-10T09:05:16.402Z,23.763889
2022-08-10T09:10:16.146Z,24.078704
2022-08-10T09:15:40.600Z,24.208333
2022-08-10T09:20:16.286Z,24.201389
2022-08-10T09:25:16.199Z,24.361111
2022-08-10T09:30:16.366Z,24.666667
2022-08-10T09:36:20.385Z,24.490741
2022-08-10T09:36:33.363Z,24.490741
2022-08-10T09:41:01.268Z,24.638889
2022-08-10T09:45:16.399Z,24.988426
2022-08-10T09:50:17.115Z,25.106481
2022-08-10T09:55:17.032Z,25.423611
2022-08-10T10:00:17.148Z,25.752315
2022-08-10T10:05:17.703Z,25.601852
2022-08-10T10:10:16.350Z,25.995370
2022-08-10T10:15:25.272Z,25.793333
2022-08-10T10:20:16.649Z,25.928241
2022-08-10T10:25:19.795Z,26.335556
2022-08-10T10:30:16.281Z,26.409722
2022-08-10T10:35:16.617Z,26.099537
2022-08-10T10:40:16.956Z,26.826667
2022-08-10T10:45:17.480Z,26.715278
2022-08-10T10:50:18.216Z,26.673611
2022-08-10T10:55:16.658Z,26.928241
2022-08-10T11:00:16.519Z,26.840278
2022-08-10T11:05:16.257Z,27.275463
2022-08-10T11:10:32.736Z,27.050926
2022-08-10T11:15:16.327Z,27.217593
2022-08-10T11:20:16.354Z,27.865741
2022-08-10T11:25:16.321Z,27.372685
2022-08-10T11:30:16.304Z,27.324074
2022-08-10T11:35:16.218Z,27.414352
2022-08-10T11:40:16.099Z,27.060000
2022-08-10T11:45:16.460Z,27.979167
2022-08-10T11:50:16.249Z,27.356481
2022-08-10T11:55:16.097Z,27.464444
2022-08-10T12:00:16.093Z,28.071759
2022-08-10T12:05:16.062Z,28.136574
2022-08-10T12:10:16.182Z,27.617778
2022-08-10T12:15:16.204Z,27.291667
2022-08-10T12:20:16.040Z,26.569444
2022-08-10T12:25:17.897Z,27.263889
2022-08-10T12:30:16.029Z,27.810185
2022-08-10T12:35:17.970Z,28.023148
2022-08-10T12:40:51.188Z,28.180556
2022-08-10T12:45:16.014Z,28.583333
2022-08-10T12:50:30.492Z,28.460648
2022-08-10T12:55:16.119Z,28.106481
2022-08-10T13:00:17.551Z,28.076389
2022-08-10T13:05:16.053Z,28.256944
2022-08-10T13:10:16.049Z,28.194444
2022-08-10T13:15:45.571Z,28.260000
2022-08-10T13:20:16.335Z,28.516204
2022-08-10T13:25:16.334Z,28.675926
2022-08-10T13:30:16.090Z,29.009259
2022-08-10T13:35:16.127Z,28.655093
2022-08-10T13:40:16.216Z,28.064815
2022-08-10T13:45:16.323Z,27.888889
2022-08-10T13:50:16.232Z,28.701389
2022-08-10T13:55:16.363Z,28.250000
2022-08-10T14:00:35.538Z,27.956019
2022-08-10T14:05:16.056Z,28.206019
2022-08-10T14:10:16.001Z,28.815556
2022-08-10T14:15:16.012Z,29.180000
2022-08-10T14:20:21.378Z,29.196759
2022-08-10T14:25:16.071Z,28.055556
2022-08-10T14:30:16.035Z,26.949074
2022-08-10T14:36:20.366Z,26.543981
2022-08-10T14:36:24.438Z,26.543981
2022-08-10T14:40:16.062Z,26.358796
2022-08-10T14:45:15.966Z,26.275463
2022-08-10T14:50:16.044Z,26.224537
2022-08-10T14:55:19.008Z,26.361111
2022-08-10T15:00:39.063Z,27.233796
2022-08-10T15:05:16.049Z,28.143519
2022-08-10T15:10:16.035Z,27.993056
2022-08-10T15:15:18.089Z,27.365741
2022-08-10T15:20:16.054Z,27.032407
2022-08-10T15:25:19.601Z,26.895833
2022-08-10T15:30:16.000Z,26.831019
2022-08-10T15:35:17.404Z,26.692130
2022-08-10T15:40:23.992Z,26.715278
2022-08-10T15:45:16.202Z,26.446759
2022-08-10T15:50:16.350Z,26.252315
2022-08-10T15:55:43.488Z,26.291667
2022-08-10T16:00:16.285Z,26.740741
2022-08-10T16:05:15.973Z,27.243056
2022-08-10T16:10:25.347Z,27.391204
2022-08-10T16:15:15.993Z,27.127315
2022-08-10T16:20:16.001Z,27.087963
2022-08-10T16:25:16.039Z,27.187500
2022-08-10T16:30:16.035Z,27.020833
2022-08-10T16:35:16.093Z,26.842593
2022-08-10T16:40:16.092Z,25.870370
2022-08-10T16:45:16.171Z,25.511574
2022-08-10T16:50:16.050Z,25.210648
2022-08-10T16:55:23.303Z,25.168981
2022-08-10T17:00:20.172Z,25.074074
2022-08-10T17:05:15.944Z,24.905093
2022-08-10T17:10:16.016Z,24.675926
2022-08-10T17:15:16.086Z,24.400463
2022-08-10T17:20:30.801Z,23.995370
2022-08-10T17:25:16.015Z,23.861111
2022-08-10T17:30:34.025Z,23.634259
2022-08-10T17:35:21.052Z,23.532407
2022-08-10T17:40:16.041Z,23.326389
2022-08-10T17:45:20.857Z,22.837963
2022-08-10T17:50:16.130Z,22.196759
2022-08-10T17:55:18.855Z,21.548611
2022-08-10T18:00:18.628Z,21.157778
2022-08-10T18:05:18.584Z,20.687500
2022-08-10T18:10:18.633Z,20.217593
2022-08-10T18:15:18.656Z,19.664352
2022-08-10T18:20:19.967Z,19.298611
2022-08-10T18:25:18.649Z,18.977778
2022-08-10T18:30:18.464Z,18.546296
2022-08-10T18:35:18.470Z,18.236111
2022-08-10T18:40:18.460Z,17.953704
2022-08-10T18:45:21.352Z,17.668889
2022-08-10T18:50:18.429Z,17.259259
2022-08-10T18:55:23.201Z,16.944444
2022-08-10T19:00:18.531Z,16.793981
2022-08-10T19:05:30.942Z,16.430556
2022-08-10T19:10:18.743Z,16.277778
2022-08-10T19:15:18.551Z,16.074074
2022-08-10T19:20:18.696Z,15.729167
2022-08-10T19:25:18.543Z,15.458333
2022-08-10T19:26:44.270Z,15.458333
2022-08-10T19:30:18.401Z,15.217593
2022-08-10T19:35:18.451Z,15.027778
2022-08-10T19:40:18.573Z,14.835648
2022-08-10T19:45:56.207Z,14.675926
2022-08-10T19:50:18.509Z,14.509259
2022-08-10T19:55:18.556Z,14.384259
2022-08-10T20:00:24.264Z,14.185185
2022-08-10T20:05:18.407Z,14.057870
2022-08-10T20:10:18.496Z,13.884259
2022-08-10T20:15:18.535Z,13.761574
2022-08-10T20:20:18.724Z,13.678241
2022-08-10T20:25:20.709Z,13.578704
2022-08-10T20:30:18.600Z,13.574074
2022-08-10T20:35:18.752Z,13.606481
2022-08-10T20:40:18.439Z,13.486111
2022-08-10T20:45:21.739Z,13.337963
2022-08-10T20:50:18.435Z,13.370370
2022-08-10T20:55:18.453Z,13.351852
2022-08-10T21:00:18.500Z,13.333333
2022-08-10T21:05:18.514Z,13.296296
2022-08-10T21:10:15.959Z,13.361111
2022-08-10T21:15:16.049Z,13.391204
2022-08-10T21:20:15.966Z,13.457778
2022-08-10T21:25:15.991Z,13.551111
2022-08-10T21:30:15.960Z,13.629630
2022-08-10T21:35:20.352Z,13.652778
2022-08-10T21:40:34.668Z,13.636574
2022-08-10T21:45:16.779Z,13.580000
2022-08-10T21:50:16.157Z,13.477778
2022-08-10T21:55:15.898Z,13.195556
2022-08-10T22:00:16.272Z,12.974537
2022-08-10T22:05:15.958Z,12.743056
2022-08-10T22:10:16.516Z,12.553241
2022-08-10T22:15:15.932Z,12.490741
2022-08-10T22:20:16.084Z,12.361111
2022-08-10T22:25:16.357Z,12.289352
2022-08-10T22:30:19.891Z,12.242222
2022-08-10T22:35:16.101Z,12.138889
2022-08-10T22:40:16.104Z,11.993333
2022-08-10T22:45:15.832Z,11.842593
2022-08-10T22:50:16.128Z,11.712963
2022-08-10T22:55:15.928Z,11.627315
2022-08-10T23:00:15.882Z,11.662222
2022-08-10T23:05:15.910Z,11.861111
2022-08-10T23:10:16.383Z,11.988889
2022-08-10T23:15:16.061Z,11.951389
2022-08-10T23:20:15.909Z,11.944444
2022-08-10T23:25:15.986Z,11.826389
2022-08-10T23:30:17.815Z,11.685185
2022-08-10T23:36:04.585Z,11.557870
2022-08-10T23:36:33.454Z,11.557870
2022-08-10T23:40:15.914Z,11.398148
2022-08-10T23:45:15.871Z,11.344444
2022-08-10T23:50:16.015Z,11.391204
2022-08-10T23:55:15.942Z,11.537037
